sensor_id;sensor_type;location;lat;lon;timestamp;temperature;humidity
56172;DHT22;42052;41.634;-0.946;2023-03-14T00:01:19;23.90;42.10
56172;DHT22;42052;41.634;-0.946;2023-03-14T00:04:09;24.00;43.00
56172;DHT22;42052;41.634;-0.946;2023-03-14T00:06:55;23.90;41.90
56172;DHT22;42052;41.634;-0.946;2023-03-14T00:09:41;23.90;42.00
56172;DHT22;42052;41.634;-0.946;2023-03-14T00:12:27;23.90;41.90
56172;DHT22;42052;41.634;-0.946;2023-03-14T00:15:13;23.90;41.90
56172;DHT22;42052;41.634;-0.946;2023-03-14T00:18:00;23.90;42.00
56172;DHT22;42052;41.634;-0.946;2023-03-14T00:20:46;23.90;42.00
56172;DHT22;42052;41.634;-0.946;2023-03-14T00:23:34;23.90;41.90
56172;DHT22;42052;41.634;-0.946;2023-03-14T00:26:21;23.90;41.90
56172;DHT22;42052;41.634;-0.946;2023-03-14T00:29:08;23.90;41.80
56172;DHT22;42052;41.634;-0.946;2023-03-14T00:31:54;23.80;41.70
56172;DHT22;42052;41.634;-0.946;2023-03-14T00:34:40;23.90;41.70
56172;DHT22;42052;41.634;-0.946;2023-03-14T00:37:27;23.80;41.80
56172;DHT22;42052;41.634;-0.946;2023-03-14T00:40:13;23.80;41.70
56172;DHT22;42052;41.634;-0.946;2023-03-14T00:42:59;23.80;41.70
56172;DHT22;42052;41.634;-0.946;2023-03-14T00:45:45;23.80;41.70
56172;DHT22;42052;41.634;-0.946;2023-03-14T00:48:32;23.80;42.10
56172;DHT22;42052;41.634;-0.946;2023-03-14T00:51:18;23.90;41.80
56172;DHT22;42052;41.634;-0.946;2023-03-14T00:54:04;23.80;41.70
56172;DHT22;42052;41.634;-0.946;2023-03-14T00:56:50;23.80;41.80
56172;DHT22;42052;41.634;-0.946;2023-03-14T00:59:36;23.80;41.70
56172;DHT22;42052;41.634;-0.946;2023-03-14T01:02:23;23.80;41.80
56172;DHT22;42052;41.634;-0.946;2023-03-14T01:05:09;23.80;41.80
56172;DHT22;42052;41.634;-0.946;2023-03-14T01:07:58;23.80;42.00
56172;DHT22;42052;41.634;-0.946;2023-03-14T01:10:44;23.80;41.90
56172;DHT22;42052;41.634;-0.946;2023-03-14T01:13:30;23.80;41.90
56172;DHT22;42052;41.634;-0.946;2023-03-14T01:16:18;23.80;41.90
56172;DHT22;42052;41.634;-0.946;2023-03-14T01:19:05;23.80;42.60
56172;DHT22;42052;41.634;-0.946;2023-03-14T01:21:51;23.80;41.80
56172;DHT22;42052;41.634;-0.946;2023-03-14T01:24:37;23.80;41.80
56172;DHT22;42052;41.634;-0.946;2023-03-14T01:27:24;23.80;41.70
56172;DHT22;42052;41.634;-0.946;2023-03-14T01:30:11;23.80;41.90
56172;DHT22;42052;41.634;-0.946;2023-03-14T01:32:57;23.80;41.80
56172;DHT22;42052;41.634;-0.946;2023-03-14T01:35:43;23.80;41.70
56172;DHT22;42052;41.634;-0.946;2023-03-14T01:38:31;23.80;41.90
56172;DHT22;42052;41.634;-0.946;2023-03-14T01:41:23;23.80;41.80
56172;DHT22;42052;41.634;-0.946;2023-03-14T01:44:11;23.80;41.90
56172;DHT22;42052;41.634;-0.946;2023-03-14T01:46:57;23.70;41.70
56172;DHT22;42052;41.634;-0.946;2023-03-14T01:49:46;23.80;41.70
56172;DHT22;42052;41.634;-0.946;2023-03-14T01:52:41;23.70;41.80
56172;DHT22;42052;41.634;-0.946;2023-03-14T01:55:29;23.70;41.70
56172;DHT22;42052;41.634;-0.946;2023-03-14T01:58:16;23.70;41.70
56172;DHT22;42052;41.634;-0.946;2023-03-14T02:01:03;23.70;41.70
56172;DHT22;42052;41.634;-0.946;2023-03-14T02:03:56;23.70;41.60
56172;DHT22;42052;41.634;-0.946;2023-03-14T02:09:36;23.70;41.70
56172;DHT22;42052;41.634;-0.946;2023-03-14T02:12:23;23.70;41.70
56172;DHT22;42052;41.634;-0.946;2023-03-14T02:15:10;23.70;41.50
56172;DHT22;42052;41.634;-0.946;2023-03-14T02:17:57;23.70;41.60
56172;DHT22;42052;41.634;-0.946;2023-03-14T02:24:13;23.70;41.60
56172;DHT22;42052;41.634;-0.946;2023-03-14T02:30:20;23.70;41.60
56172;DHT22;42052;41.634;-0.946;2023-03-14T02:33:09;23.70;41.50
56172;DHT22;42052;41.634;-0.946;2023-03-14T02:36:01;23.70;41.60
56172;DHT22;42052;41.634;-0.946;2023-03-14T02:39:06;23.70;41.60
56172;DHT22;42052;41.634;-0.946;2023-03-14T02:41:54;23.70;41.60
56172;DHT22;42052;41.634;-0.946;2023-03-14T02:47:42;23.60;41.50
56172;DHT22;42052;41.634;-0.946;2023-03-14T02:50:31;23.60;41.40
56172;DHT22;42052;41.634;-0.946;2023-03-14T02:53:23;23.60;41.50
56172;DHT22;42052;41.634;-0.946;2023-03-14T02:56:10;23.60;41.50
56172;DHT22;42052;41.634;-0.946;2023-03-14T02:58:56;23.60;41.60
56172;DHT22;42052;41.634;-0.946;2023-03-14T03:01:43;23.60;41.60
56172;DHT22;42052;41.634;-0.946;2023-03-14T03:04:29;23.60;41.70
56172;DHT22;42052;41.634;-0.946;2023-03-14T03:07:15;23.60;41.60
56172;DHT22;42052;41.634;-0.946;2023-03-14T03:10:03;23.60;41.70
56172;DHT22;42052;41.634;-0.946;2023-03-14T03:12:50;23.60;41.50
56172;DHT22;42052;41.634;-0.946;2023-03-14T03:15:37;23.60;41.60
56172;DHT22;42052;41.634;-0.946;2023-03-14T03:18:23;23.60;41.70
56172;DHT22;42052;41.634;-0.946;2023-03-14T03:21:09;23.60;41.70
56172;DHT22;42052;41.634;-0.946;2023-03-14T03:23:55;23.60;41.60
56172;DHT22;42052;41.634;-0.946;2023-03-14T03:26:41;23.60;41.60
56172;DHT22;42052;41.634;-0.946;2023-03-14T03:29:27;23.60;41.70
56172;DHT22;42052;41.634;-0.946;2023-03-14T03:32:14;23.60;41.70
56172;DHT22;42052;41.634;-0.946;2023-03-14T03:35:00;23.60;41.70
56172;DHT22;42052;41.634;-0.946;2023-03-14T03:37:46;23.60;41.60
56172;DHT22;42052;41.634;-0.946;2023-03-14T03:40:32;23.60;41.60
56172;DHT22;42052;41.634;-0.946;2023-03-14T03:43:18;23.60;41.60
56172;DHT22;42052;41.634;-0.946;2023-03-14T03:46:05;23.60;41.60
56172;DHT22;42052;41.634;-0.946;2023-03-14T03:48:56;23.60;41.60
56172;DHT22;42052;41.634;-0.946;2023-03-14T03:51:42;23.60;41.50
56172;DHT22;42052;41.634;-0.946;2023-03-14T03:54:28;23.60;41.60
56172;DHT22;42052;41.634;-0.946;2023-03-14T03:57:15;23.60;41.50
56172;DHT22;42052;41.634;-0.946;2023-03-14T04:00:01;23.60;41.50
56172;DHT22;42052;41.634;-0.946;2023-03-14T04:02:49;23.60;41.40
56172;DHT22;42052;41.634;-0.946;2023-03-14T04:05:35;23.60;41.50
56172;DHT22;42052;41.634;-0.946;2023-03-14T04:08:21;23.60;41.40
56172;DHT22;42052;41.634;-0.946;2023-03-14T04:11:07;23.60;41.30
56172;DHT22;42052;41.634;-0.946;2023-03-14T04:13:53;23.60;41.40
56172;DHT22;42052;41.634;-0.946;2023-03-14T04:16:40;23.50;41.30
56172;DHT22;42052;41.634;-0.946;2023-03-14T04:19:26;23.50;41.30
56172;DHT22;42052;41.634;-0.946;2023-03-14T04:22:12;23.50;41.30
56172;DHT22;42052;41.634;-0.946;2023-03-14T04:24:58;23.50;41.30
56172;DHT22;42052;41.634;-0.946;2023-03-14T04:27:44;23.50;41.30
56172;DHT22;42052;41.634;-0.946;2023-03-14T04:30:30;23.50;41.20
56172;DHT22;42052;41.634;-0.946;2023-03-14T04:33:16;23.50;41.40
56172;DHT22;42052;41.634;-0.946;2023-03-14T04:36:04;23.50;41.30
56172;DHT22;42052;41.634;-0.946;2023-03-14T04:38:50;23.50;41.30
56172;DHT22;42052;41.634;-0.946;2023-03-14T04:41:36;23.50;41.40
56172;DHT22;42052;41.634;-0.946;2023-03-14T04:44:23;23.50;41.30
56172;DHT22;42052;41.634;-0.946;2023-03-14T04:47:09;23.50;41.30
56172;DHT22;42052;41.634;-0.946;2023-03-14T04:49:55;23.50;41.30
56172;DHT22;42052;41.634;-0.946;2023-03-14T04:52:41;23.50;41.20
56172;DHT22;42052;41.634;-0.946;2023-03-14T04:55:27;23.50;41.40
56172;DHT22;42052;41.634;-0.946;2023-03-14T04:58:13;23.50;41.20
56172;DHT22;42052;41.634;-0.946;2023-03-14T05:01:03;23.50;41.30
56172;DHT22;42052;41.634;-0.946;2023-03-14T05:03:50;23.50;41.30
56172;DHT22;42052;41.634;-0.946;2023-03-14T05:06:36;23.50;41.30
56172;DHT22;42052;41.634;-0.946;2023-03-14T05:09:22;23.50;41.20
56172;DHT22;42052;41.634;-0.946;2023-03-14T05:12:08;23.50;41.30
56172;DHT22;42052;41.634;-0.946;2023-03-14T05:14:55;23.50;41.30
56172;DHT22;42052;41.634;-0.946;2023-03-14T05:17:41;23.50;41.20
56172;DHT22;42052;41.634;-0.946;2023-03-14T05:20:27;23.50;41.30
56172;DHT22;42052;41.634;-0.946;2023-03-14T05:23:13;23.50;41.20
56172;DHT22;42052;41.634;-0.946;2023-03-14T05:25:59;23.50;41.10
56172;DHT22;42052;41.634;-0.946;2023-03-14T05:28:45;23.50;41.20
56172;DHT22;42052;41.634;-0.946;2023-03-14T05:31:31;23.50;41.10
56172;DHT22;42052;41.634;-0.946;2023-03-14T05:34:17;23.50;41.10
56172;DHT22;42052;41.634;-0.946;2023-03-14T05:37:03;23.50;41.10
56172;DHT22;42052;41.634;-0.946;2023-03-14T05:39:49;23.50;41.00
56172;DHT22;42052;41.634;-0.946;2023-03-14T05:42:35;23.50;41.00
56172;DHT22;42052;41.634;-0.946;2023-03-14T05:45:22;23.40;41.00
56172;DHT22;42052;41.634;-0.946;2023-03-14T05:48:08;23.50;41.00
56172;DHT22;42052;41.634;-0.946;2023-03-14T05:50:55;23.40;41.00
56172;DHT22;42052;41.634;-0.946;2023-03-14T05:53:41;23.40;41.20
56172;DHT22;42052;41.634;-0.946;2023-03-14T05:56:28;23.50;41.00
56172;DHT22;42052;41.634;-0.946;2023-03-14T05:59:14;23.40;41.10
56172;DHT22;42052;41.634;-0.946;2023-03-14T06:02:00;23.40;41.30
56172;DHT22;42052;41.634;-0.946;2023-03-14T06:04:46;23.50;41.40
56172;DHT22;42052;41.634;-0.946;2023-03-14T06:07:32;23.40;41.60
56172;DHT22;42052;41.634;-0.946;2023-03-14T06:10:19;23.40;41.50
56172;DHT22;42052;41.634;-0.946;2023-03-14T06:13:05;23.40;41.10
56172;DHT22;42052;41.634;-0.946;2023-03-14T06:15:51;23.40;41.00
56172;DHT22;42052;41.634;-0.946;2023-03-14T06:18:37;23.40;41.00
56172;DHT22;42052;41.634;-0.946;2023-03-14T06:21:23;23.40;41.10
56172;DHT22;42052;41.634;-0.946;2023-03-14T06:24:09;23.40;41.10
56172;DHT22;42052;41.634;-0.946;2023-03-14T06:26:55;23.40;41.20
56172;DHT22;42052;41.634;-0.946;2023-03-14T06:29:42;23.40;41.20
56172;DHT22;42052;41.634;-0.946;2023-03-14T06:32:28;23.40;41.00
56172;DHT22;42052;41.634;-0.946;2023-03-14T06:35:14;23.40;41.00
56172;DHT22;42052;41.634;-0.946;2023-03-14T06:38:00;23.40;40.80
56172;DHT22;42052;41.634;-0.946;2023-03-14T06:40:46;23.40;40.80
56172;DHT22;42052;41.634;-0.946;2023-03-14T06:43:32;23.40;41.10
56172;DHT22;42052;41.634;-0.946;2023-03-14T06:46:18;23.40;41.10
56172;DHT22;42052;41.634;-0.946;2023-03-14T06:49:05;23.40;41.20
56172;DHT22;42052;41.634;-0.946;2023-03-14T06:51:51;23.40;41.20
56172;DHT22;42052;41.634;-0.946;2023-03-14T06:54:37;23.40;41.20
56172;DHT22;42052;41.634;-0.946;2023-03-14T06:57:23;23.40;41.10
56172;DHT22;42052;41.634;-0.946;2023-03-14T07:00:11;23.40;41.10
56172;DHT22;42052;41.634;-0.946;2023-03-14T07:02:57;23.40;41.20
56172;DHT22;42052;41.634;-0.946;2023-03-14T07:05:43;23.40;41.10
56172;DHT22;42052;41.634;-0.946;2023-03-14T07:08:29;23.40;41.10
56172;DHT22;42052;41.634;-0.946;2023-03-14T07:11:16;23.40;41.00
56172;DHT22;42052;41.634;-0.946;2023-03-14T07:14:03;23.40;41.00
56172;DHT22;42052;41.634;-0.946;2023-03-14T07:16:49;23.40;41.00
56172;DHT22;42052;41.634;-0.946;2023-03-14T07:19:36;23.30;41.10
56172;DHT22;42052;41.634;-0.946;2023-03-14T07:22:23;23.30;40.80
56172;DHT22;42052;41.634;-0.946;2023-03-14T07:25:09;23.40;41.10
56172;DHT22;42052;41.634;-0.946;2023-03-14T07:27:58;23.30;41.00
56172;DHT22;42052;41.634;-0.946;2023-03-14T07:30:46;23.40;41.10
56172;DHT22;42052;41.634;-0.946;2023-03-14T07:33:32;23.30;40.90
56172;DHT22;42052;41.634;-0.946;2023-03-14T07:36:19;23.30;41.00
56172;DHT22;42052;41.634;-0.946;2023-03-14T07:39:05;23.30;41.60
56172;DHT22;42052;41.634;-0.946;2023-03-14T07:41:51;23.30;40.90
56172;DHT22;42052;41.634;-0.946;2023-03-14T07:44:37;23.30;40.90
56172;DHT22;42052;41.634;-0.946;2023-03-14T07:47:23;23.30;40.80
56172;DHT22;42052;41.634;-0.946;2023-03-14T07:50:10;23.30;40.80
56172;DHT22;42052;41.634;-0.946;2023-03-14T07:52:56;23.30;40.80
56172;DHT22;42052;41.634;-0.946;2023-03-14T07:55:42;23.30;40.90
56172;DHT22;42052;41.634;-0.946;2023-03-14T07:58:28;23.30;40.90
56172;DHT22;42052;41.634;-0.946;2023-03-14T08:01:15;23.30;40.60
56172;DHT22;42052;41.634;-0.946;2023-03-14T08:04:01;23.20;40.50
56172;DHT22;42052;41.634;-0.946;2023-03-14T08:06:47;23.20;40.50
56172;DHT22;42052;41.634;-0.946;2023-03-14T08:09:33;23.30;40.70
56172;DHT22;42052;41.634;-0.946;2023-03-14T08:12:19;23.30;40.50
56172;DHT22;42052;41.634;-0.946;2023-03-14T08:15:06;23.20;40.50
56172;DHT22;42052;41.634;-0.946;2023-03-14T08:17:52;23.20;40.60
56172;DHT22;42052;41.634;-0.946;2023-03-14T08:20:39;23.20;40.60
56172;DHT22;42052;41.634;-0.946;2023-03-14T08:23:25;23.20;40.50
56172;DHT22;42052;41.634;-0.946;2023-03-14T08:26:11;23.20;41.40
56172;DHT22;42052;41.634;-0.946;2023-03-14T08:28:58;23.20;40.50
56172;DHT22;42052;41.634;-0.946;2023-03-14T08:31:44;23.20;40.40
56172;DHT22;42052;41.634;-0.946;2023-03-14T08:34:30;23.20;40.40
56172;DHT22;42052;41.634;-0.946;2023-03-14T08:37:18;23.20;40.50
56172;DHT22;42052;41.634;-0.946;2023-03-14T08:40:06;23.20;40.50
56172;DHT22;42052;41.634;-0.946;2023-03-14T08:42:53;23.20;40.40
56172;DHT22;42052;41.634;-0.946;2023-03-14T08:45:39;23.20;40.20
56172;DHT22;42052;41.634;-0.946;2023-03-14T08:48:25;23.20;40.20
56172;DHT22;42052;41.634;-0.946;2023-03-14T08:51:13;23.20;40.30
56172;DHT22;42052;41.634;-0.946;2023-03-14T08:53:59;23.20;40.30
56172;DHT22;42052;41.634;-0.946;2023-03-14T08:56:45;23.20;40.10
56172;DHT22;42052;41.634;-0.946;2023-03-14T08:59:32;23.20;40.20
56172;DHT22;42052;41.634;-0.946;2023-03-14T09:02:18;23.20;40.20
56172;DHT22;42052;41.634;-0.946;2023-03-14T09:05:05;23.20;40.20
56172;DHT22;42052;41.634;-0.946;2023-03-14T09:07:51;23.20;40.30
56172;DHT22;42052;41.634;-0.946;2023-03-14T09:10:37;23.20;40.40
56172;DHT22;42052;41.634;-0.946;2023-03-14T09:13:24;23.20;40.30
56172;DHT22;42052;41.634;-0.946;2023-03-14T09:16:10;23.30;40.40
56172;DHT22;42052;41.634;-0.946;2023-03-14T09:18:57;23.20;40.30
56172;DHT22;42052;41.634;-0.946;2023-03-14T09:21:45;23.20;40.00
56172;DHT22;42052;41.634;-0.946;2023-03-14T09:24:31;23.20;40.00
56172;DHT22;42052;41.634;-0.946;2023-03-14T09:27:17;23.30;40.00
56172;DHT22;42052;41.634;-0.946;2023-03-14T09:30:04;23.30;40.00
56172;DHT22;42052;41.634;-0.946;2023-03-14T09:32:50;23.30;40.20
56172;DHT22;42052;41.634;-0.946;2023-03-14T09:35:36;23.30;40.20
56172;DHT22;42052;41.634;-0.946;2023-03-14T09:38:22;23.30;40.20
56172;DHT22;42052;41.634;-0.946;2023-03-14T09:41:23;23.30;40.30
56172;DHT22;42052;41.634;-0.946;2023-03-14T09:44:31;23.30;40.20
56172;DHT22;42052;41.634;-0.946;2023-03-14T09:47:18;23.40;40.20
56172;DHT22;42052;41.634;-0.946;2023-03-14T09:50:13;23.40;40.30
56172;DHT22;42052;41.634;-0.946;2023-03-14T09:53:14;23.30;40.10
56172;DHT22;42052;41.634;-0.946;2023-03-14T09:56:01;23.30;40.10
56172;DHT22;42052;41.634;-0.946;2023-03-14T09:59:00;23.30;40.10
56172;DHT22;42052;41.634;-0.946;2023-03-14T10:01:46;23.30;40.10
56172;DHT22;42052;41.634;-0.946;2023-03-14T10:04:33;23.40;40.10
56172;DHT22;42052;41.634;-0.946;2023-03-14T10:07:31;23.40;39.90
56172;DHT22;42052;41.634;-0.946;2023-03-14T10:10:20;23.40;39.90
56172;DHT22;42052;41.634;-0.946;2023-03-14T10:13:24;23.40;40.10
56172;DHT22;42052;41.634;-0.946;2023-03-14T10:16:15;23.40;40.00
56172;DHT22;42052;41.634;-0.946;2023-03-14T10:19:06;23.40;40.00
56172;DHT22;42052;41.634;-0.946;2023-03-14T10:21:53;23.40;40.00
56172;DHT22;42052;41.634;-0.946;2023-03-14T10:24:46;23.40;40.00
56172;DHT22;42052;41.634;-0.946;2023-03-14T10:27:35;23.40;39.90
56172;DHT22;42052;41.634;-0.946;2023-03-14T10:30:43;23.40;39.80
56172;DHT22;42052;41.634;-0.946;2023-03-14T10:33:35;23.40;39.90
56172;DHT22;42052;41.634;-0.946;2023-03-14T10:36:24;23.40;39.60
56172;DHT22;42052;41.634;-0.946;2023-03-14T10:45:37;23.40;39.50
56172;DHT22;42052;41.634;-0.946;2023-03-14T10:48:28;23.40;39.40
56172;DHT22;42052;41.634;-0.946;2023-03-14T10:51:22;23.40;39.50
56172;DHT22;42052;41.634;-0.946;2023-03-14T10:54:20;23.40;39.50
56172;DHT22;42052;41.634;-0.946;2023-03-14T10:57:07;23.40;39.50
56172;DHT22;42052;41.634;-0.946;2023-03-14T10:59:55;23.50;39.50
56172;DHT22;42052;41.634;-0.946;2023-03-14T11:05:57;23.50;39.50
56172;DHT22;42052;41.634;-0.946;2023-03-14T11:09:00;23.50;39.50
56172;DHT22;42052;41.634;-0.946;2023-03-14T11:11:51;23.50;39.60
56172;DHT22;42052;41.634;-0.946;2023-03-14T11:14:41;23.50;39.50
56172;DHT22;42052;41.634;-0.946;2023-03-14T11:17:46;23.50;39.50
56172;DHT22;42052;41.634;-0.946;2023-03-14T11:20:59;23.50;39.50
56172;DHT22;42052;41.634;-0.946;2023-03-14T11:24:32;23.50;39.40
56172;DHT22;42052;41.634;-0.946;2023-03-14T11:27:13;23.50;39.40
56172;DHT22;42052;41.634;-0.946;2023-03-14T11:33:14;23.50;39.40
56172;DHT22;42052;41.634;-0.946;2023-03-14T11:36:07;23.50;39.20
56172;DHT22;42052;41.634;-0.946;2023-03-14T11:38:57;23.50;39.20
56172;DHT22;42052;41.634;-0.946;2023-03-14T11:41:57;23.50;39.10
56172;DHT22;42052;41.634;-0.946;2023-03-14T11:44:47;23.50;39.00
56172;DHT22;42052;41.634;-0.946;2023-03-14T11:47:42;23.50;40.00
56172;DHT22;42052;41.634;-0.946;2023-03-14T11:50:30;23.50;39.00
56172;DHT22;42052;41.634;-0.946;2023-03-14T12:08:39;23.60;39.20
56172;DHT22;42052;41.634;-0.946;2023-03-14T12:14:36;23.50;39.10
56172;DHT22;42052;41.634;-0.946;2023-03-14T12:17:41;23.50;39.10
56172;DHT22;42052;41.634;-0.946;2023-03-14T12:20:29;23.50;39.10
56172;DHT22;42052;41.634;-0.946;2023-03-14T12:23:15;23.50;39.10
56172;DHT22;42052;41.634;-0.946;2023-03-14T12:31:47;23.50;39.10
56172;DHT22;42052;41.634;-0.946;2023-03-14T12:34:41;23.50;39.10
56172;DHT22;42052;41.634;-0.946;2023-03-14T12:37:36;23.50;39.00
56172;DHT22;42052;41.634;-0.946;2023-03-14T12:40:47;23.60;38.90
56172;DHT22;42052;41.634;-0.946;2023-03-14T12:43:38;23.60;39.00
56172;DHT22;42052;41.634;-0.946;2023-03-14T12:46:26;23.60;39.00
56172;DHT22;42052;41.634;-0.946;2023-03-14T12:49:13;23.60;39.00
56172;DHT22;42052;41.634;-0.946;2023-03-14T12:52:00;23.60;39.00
56172;DHT22;42052;41.634;-0.946;2023-03-14T12:57:41;23.60;39.00
56172;DHT22;42052;41.634;-0.946;2023-03-14T13:00:34;23.50;38.90
56172;DHT22;42052;41.634;-0.946;2023-03-14T13:03:24;23.60;39.00
56172;DHT22;42052;41.634;-0.946;2023-03-14T13:06:13;23.60;39.00
56172;DHT22;42052;41.634;-0.946;2023-03-14T13:12:23;23.60;38.90
56172;DHT22;42052;41.634;-0.946;2023-03-14T13:15:34;23.60;38.90
56172;DHT22;42052;41.634;-0.946;2023-03-14T13:18:29;23.60;38.90
56172;DHT22;42052;41.634;-0.946;2023-03-14T13:21:25;23.60;38.80
56172;DHT22;42052;41.634;-0.946;2023-03-14T13:24:23;23.60;38.80
56172;DHT22;42052;41.634;-0.946;2023-03-14T13:27:20;23.60;38.80
56172;DHT22;42052;41.634;-0.946;2023-03-14T13:33:04;23.60;38.90
56172;DHT22;42052;41.634;-0.946;2023-03-14T13:35:59;23.60;38.90
56172;DHT22;42052;41.634;-0.946;2023-03-14T13:38:58;23.60;38.90
56172;DHT22;42052;41.634;-0.946;2023-03-14T13:41:46;23.60;38.80
56172;DHT22;42052;41.634;-0.946;2023-03-14T13:44:36;23.60;38.80
56172;DHT22;42052;41.634;-0.946;2023-03-14T13:47:24;23.70;38.70
56172;DHT22;42052;41.634;-0.946;2023-03-14T13:50:16;23.60;38.70
56172;DHT22;42052;41.634;-0.946;2023-03-14T13:53:03;23.70;38.60
56172;DHT22;42052;41.634;-0.946;2023-03-14T13:55:50;23.60;38.60
56172;DHT22;42052;41.634;-0.946;2023-03-14T13:58:38;23.60;38.60
56172;DHT22;42052;41.634;-0.946;2023-03-14T14:01:33;23.60;38.60
56172;DHT22;42052;41.634;-0.946;2023-03-14T14:04:23;23.60;38.50
56172;DHT22;42052;41.634;-0.946;2023-03-14T14:07:15;23.60;38.50
56172;DHT22;42052;41.634;-0.946;2023-03-14T14:10:04;23.60;38.50
56172;DHT22;42052;41.634;-0.946;2023-03-14T14:13:00;23.60;38.50
56172;DHT22;42052;41.634;-0.946;2023-03-14T14:15:49;23.70;38.50
56172;DHT22;42052;41.634;-0.946;2023-03-14T14:18:37;23.60;38.50
56172;DHT22;42052;41.634;-0.946;2023-03-14T14:21:24;23.60;38.50
56172;DHT22;42052;41.634;-0.946;2023-03-14T14:24:15;23.70;38.50
56172;DHT22;42052;41.634;-0.946;2023-03-14T14:27:18;23.60;38.50
56172;DHT22;42052;41.634;-0.946;2023-03-14T14:33:20;23.60;38.50
56172;DHT22;42052;41.634;-0.946;2023-03-14T14:36:17;23.60;38.50
56172;DHT22;42052;41.634;-0.946;2023-03-14T14:41:52;23.60;38.40
56172;DHT22;42052;41.634;-0.946;2023-03-14T14:44:39;23.60;38.50
56172;DHT22;42052;41.634;-0.946;2023-03-14T14:47:26;23.60;38.50
56172;DHT22;42052;41.634;-0.946;2023-03-14T14:50:26;23.60;38.50
56172;DHT22;42052;41.634;-0.946;2023-03-14T14:53:21;23.60;39.10
56172;DHT22;42052;41.634;-0.946;2023-03-14T14:56:16;23.60;38.40
56172;DHT22;42052;41.634;-0.946;2023-03-14T14:59:03;23.60;38.40
56172;DHT22;42052;41.634;-0.946;2023-03-14T15:01:55;23.60;38.50
56172;DHT22;42052;41.634;-0.946;2023-03-14T15:04:42;23.60;38.40
56172;DHT22;42052;41.634;-0.946;2023-03-14T15:07:28;23.60;38.30
56172;DHT22;42052;41.634;-0.946;2023-03-14T15:10:19;23.60;38.30
56172;DHT22;42052;41.634;-0.946;2023-03-14T15:13:06;23.60;38.40
56172;DHT22;42052;41.634;-0.946;2023-03-14T15:15:52;23.60;38.50
56172;DHT22;42052;41.634;-0.946;2023-03-14T15:18:41;23.60;38.30
56172;DHT22;42052;41.634;-0.946;2023-03-14T15:21:29;23.60;38.30
56172;DHT22;42052;41.634;-0.946;2023-03-14T15:24:15;23.70;38.40
56172;DHT22;42052;41.634;-0.946;2023-03-14T15:27:01;23.60;38.20
56172;DHT22;42052;41.634;-0.946;2023-03-14T15:29:47;23.60;38.30
56172;DHT22;42052;41.634;-0.946;2023-03-14T15:32:33;23.60;38.40
56172;DHT22;42052;41.634;-0.946;2023-03-14T15:35:19;23.60;38.30
56172;DHT22;42052;41.634;-0.946;2023-03-14T15:38:05;23.60;38.30
56172;DHT22;42052;41.634;-0.946;2023-03-14T15:40:52;23.60;38.20
56172;DHT22;42052;41.634;-0.946;2023-03-14T15:43:38;23.60;38.30
56172;DHT22;42052;41.634;-0.946;2023-03-14T15:46:24;23.60;38.20
56172;DHT22;42052;41.634;-0.946;2023-03-14T15:49:10;23.60;38.20
56172;DHT22;42052;41.634;-0.946;2023-03-14T15:51:56;23.60;38.20
56172;DHT22;42052;41.634;-0.946;2023-03-14T15:54:42;23.60;38.20
56172;DHT22;42052;41.634;-0.946;2023-03-14T15:57:28;23.60;38.10
56172;DHT22;42052;41.634;-0.946;2023-03-14T16:00:18;23.60;38.20
56172;DHT22;42052;41.634;-0.946;2023-03-14T16:03:05;23.60;38.30
56172;DHT22;42052;41.634;-0.946;2023-03-14T16:05:51;23.60;38.10
56172;DHT22;42052;41.634;-0.946;2023-03-14T16:08:37;23.60;38.10
56172;DHT22;42052;41.634;-0.946;2023-03-14T16:11:23;23.60;38.20
56172;DHT22;42052;41.634;-0.946;2023-03-14T16:14:09;23.60;38.10
56172;DHT22;42052;41.634;-0.946;2023-03-14T16:16:55;23.60;38.10
56172;DHT22;42052;41.634;-0.946;2023-03-14T16:19:44;23.60;38.10
56172;DHT22;42052;41.634;-0.946;2023-03-14T16:22:30;23.60;38.20
56172;DHT22;42052;41.634;-0.946;2023-03-14T16:25:20;23.60;38.20
56172;DHT22;42052;41.634;-0.946;2023-03-14T16:28:06;23.60;38.10
56172;DHT22;42052;41.634;-0.946;2023-03-14T16:30:59;23.60;38.10
56172;DHT22;42052;41.634;-0.946;2023-03-14T16:33:46;23.60;38.20
56172;DHT22;42052;41.634;-0.946;2023-03-14T16:36:32;23.60;38.10
56172;DHT22;42052;41.634;-0.946;2023-03-14T16:39:18;23.60;38.10
56172;DHT22;42052;41.634;-0.946;2023-03-14T16:42:04;23.60;38.20
56172;DHT22;42052;41.634;-0.946;2023-03-14T16:44:51;23.60;38.10
56172;DHT22;42052;41.634;-0.946;2023-03-14T16:47:37;23.60;38.10
56172;DHT22;42052;41.634;-0.946;2023-03-14T16:50:23;23.60;38.30
56172;DHT22;42052;41.634;-0.946;2023-03-14T16:53:09;23.60;38.20
56172;DHT22;42052;41.634;-0.946;2023-03-14T16:55:56;23.60;38.10
56172;DHT22;42052;41.634;-0.946;2023-03-14T16:58:43;23.60;38.20
56172;DHT22;42052;41.634;-0.946;2023-03-14T17:01:29;23.60;38.20
56172;DHT22;42052;41.634;-0.946;2023-03-14T17:04:15;23.60;38.20
56172;DHT22;42052;41.634;-0.946;2023-03-14T17:07:01;23.60;38.20
56172;DHT22;42052;41.634;-0.946;2023-03-14T17:09:47;23.60;38.20
56172;DHT22;42052;41.634;-0.946;2023-03-14T17:12:33;23.60;38.10
56172;DHT22;42052;41.634;-0.946;2023-03-14T17:15:19;23.60;38.20
56172;DHT22;42052;41.634;-0.946;2023-03-14T17:18:06;23.50;38.20
56172;DHT22;42052;41.634;-0.946;2023-03-14T17:20:52;23.60;38.30
56172;DHT22;42052;41.634;-0.946;2023-03-14T17:23:39;23.50;38.20
56172;DHT22;42052;41.634;-0.946;2023-03-14T17:26:25;23.50;38.20
56172;DHT22;42052;41.634;-0.946;2023-03-14T17:29:12;23.50;38.20
56172;DHT22;42052;41.634;-0.946;2023-03-14T17:31:58;23.50;38.20
56172;DHT22;42052;41.634;-0.946;2023-03-14T17:34:45;23.50;38.30
56172;DHT22;42052;41.634;-0.946;2023-03-14T17:37:31;23.50;38.30
56172;DHT22;42052;41.634;-0.946;2023-03-14T17:40:18;23.50;38.30
56172;DHT22;42052;41.634;-0.946;2023-03-14T17:43:04;23.50;38.30
56172;DHT22;42052;41.634;-0.946;2023-03-14T17:46:01;23.50;38.20
56172;DHT22;42052;41.634;-0.946;2023-03-14T17:48:50;23.50;38.10
56172;DHT22;42052;41.634;-0.946;2023-03-14T17:51:36;23.50;38.00
56172;DHT22;42052;41.634;-0.946;2023-03-14T17:54:23;23.50;38.90
56172;DHT22;42052;41.634;-0.946;2023-03-14T17:57:09;23.50;38.10
56172;DHT22;42052;41.634;-0.946;2023-03-14T17:59:55;23.50;38.20
56172;DHT22;42052;41.634;-0.946;2023-03-14T18:02:41;23.50;38.00
56172;DHT22;42052;41.634;-0.946;2023-03-14T18:05:28;23.50;37.90
56172;DHT22;42052;41.634;-0.946;2023-03-14T18:08:14;23.50;38.20
56172;DHT22;42052;41.634;-0.946;2023-03-14T18:11:00;23.50;38.30
56172;DHT22;42052;41.634;-0.946;2023-03-14T18:13:47;23.40;38.30
56172;DHT22;42052;41.634;-0.946;2023-03-14T18:16:34;23.50;38.20
56172;DHT22;42052;41.634;-0.946;2023-03-14T18:19:20;23.50;38.20
56172;DHT22;42052;41.634;-0.946;2023-03-14T18:22:07;23.50;38.30
56172;DHT22;42052;41.634;-0.946;2023-03-14T18:24:53;23.50;38.20
56172;DHT22;42052;41.634;-0.946;2023-03-14T18:27:39;23.50;38.10
56172;DHT22;42052;41.634;-0.946;2023-03-14T18:30:25;23.50;38.20